Time,TemperatureF,DewpointF,PressureIn,WindDirection,WindDirectionDegrees,WindSpeedMPH,WindSpeedGustMPH,Humidity,HourlyPrecipIn,Conditions,Clouds,dailyrainin,SoftwareType,DateUTC
2013-03-24 00:00:00,30.4,11.6,28.88,NW,310,2.7,6.3,45,0.00,,,0.00,VWS V14.00,2013-03-24 05:00:00,
2013-03-24 00:05:00,30.4,11.1,28.88,WNW,300,8.1,8.1,44,0.00,,,0.00,VWS V14.00,2013-03-24 05:05:00,
2013-03-24 00:10:00,30.6,10.7,28.88,WNW,297,5.4,8.1,43,0.00,,,0.00,VWS V14.00,2013-03-24 05:10:00,
2013-03-24 00:15:00,30.4,10.6,28.88,NW,320,4.0,5.4,43,0.00,,,0.00,VWS V14.00,2013-03-24 05:15:00,
2013-03-24 00:20:00,30.7,10.4,28.88,NW,321,5.8,6.3,42,0.00,,,0.00,VWS V14.00,2013-03-24 05:20:00,
2013-03-24 00:25:00,30.7,9.8,28.88,West,277,4.9,8.3,41,0.00,,,0.00,VWS V14.00,2013-03-24 05:25:00,
2013-03-24 00:30:00,30.7,9.8,28.88,NW,314,6.3,8.7,41,0.00,,,0.00,VWS V14.00,2013-03-24 05:30:00,
2013-03-24 00:35:00,30.7,9.8,28.88,NNW,336,4.0,11.0,41,0.00,,,0.00,VWS V14.00,2013-03-24 05:35:00,
2013-03-24 00:40:00,30.4,9.5,28.88,NW,309,3.1,3.1,41,0.00,,,0.00,VWS V14.00,2013-03-24 05:40:00,
2013-03-24 00:45:00,30.4,10.1,28.88,North,357,5.8,7.6,42,0.00,,,0.00,VWS V14.00,2013-03-24 05:45:00,
2013-03-24 00:50:00,30.2,9.9,28.88,WNW,286,2.7,8.7,42,0.00,,,0.00,VWS V14.00,2013-03-24 05:50:00,
2013-03-24 00:55:00,30.2,10.4,28.88,West,274,2.7,6.3,43,0.00,,,0.00,VWS V14.00,2013-03-24 05:55:00,
2013-03-24 01:00:00,30.2,10.4,28.88,WNW,293,4.0,13.2,43,0.00,,,0.00,VWS V14.00,2013-03-24 06:00:00,
2013-03-24 01:05:00,30.0,10.8,28.88,NNW,341,5.8,5.8,44,0.00,,,0.00,VWS V14.00,2013-03-24 06:05:00,
2013-03-24 01:10:00,30.0,10.8,28.88,NW,313,4.0,8.7,44,0.00,,,0.00,VWS V14.00,2013-03-24 06:10:00,
2013-03-24 01:15:00,29.8,10.6,28.88,North,353,2.7,6.3,44,0.00,,,0.00,VWS V14.00,2013-03-24 06:15:00,
2013-03-24 01:20:00,29.7,10.9,28.88,WNW,301,2.7,6.3,45,0.00,,,0.00,VWS V14.00,2013-03-24 06:20:00,
2013-03-24 01:25:00,29.7,10.9,28.88,North,353,2.2,7.6,45,0.00,,,0.00,VWS V14.00,2013-03-24 06:25:00,
2013-03-24 01:30:00,30.0,10.2,28.88,NW,313,5.8,7.6,43,0.00,,,0.00,VWS V14.00,2013-03-24 06:30:00,
2013-03-24 01:35:00,30.2,10.4,28.88,North,0,2.7,6.3,43,0.00,,,0.00,VWS V14.00,2013-03-24 06:35:00,
2013-03-24 01:40:00,30.2,10.4,28.88,North,353,2.7,6.3,43,0.00,,,0.00,VWS V14.00,2013-03-24 06:40:00,
2013-03-24 01:45:00,30.2,10.4,28.88,NNW,334,4.0,6.3,43,0.00,,,0.00,VWS V14.00,2013-03-24 06:45:00,
2013-03-24 01:50:00,30.4,10.6,28.88,North,353,3.6,8.1,43,0.00,,,0.00,VWS V14.00,2013-03-24 06:50:00,
2013-03-24 01:55:00,30.4,10.6,28.88,NW,325,4.9,8.3,43,0.00,,,0.00,VWS V14.00,2013-03-24 06:55:00,
2013-03-24 02:00:00,30.4,11.1,28.88,WNW,293,3.6,8.3,44,0.00,,,0.00,VWS V14.00,2013-03-24 07:00:00,
2013-03-24 02:05:00,30.2,11.4,28.88,NNW,333,5.4,7.6,45,0.00,,,0.00,VWS V14.00,2013-03-24 07:05:00,
2013-03-24 02:10:00,30.0,12.2,28.88,WNW,301,5.4,8.1,47,0.00,,,0.00,VWS V14.00,2013-03-24 07:10:00,
2013-03-24 02:15:00,29.8,12.6,28.88,North,0,5.4,8.3,48,0.00,,,0.00,VWS V14.00,2013-03-24 07:15:00,
2013-03-24 02:20:00,29.8,13.0,28.88,NW,305,2.2,8.3,49,0.00,,,0.00,VWS V14.00,2013-03-24 07:20:00,
2013-03-24 02:25:00,29.7,13.8,28.88,WNW,297,3.1,5.4,51,0.00,,,0.00,VWS V14.00,2013-03-24 07:25:00,
2013-03-24 02:30:00,29.7,14.2,28.88,WNW,293,2.7,6.3,52,0.00,,,0.00,VWS V14.00,2013-03-24 07:30:00,
2013-03-24 02:35:00,29.5,14.5,28.88,West,278,4.5,7.6,53,0.00,,,0.00,VWS V14.00,2013-03-24 07:35:00,
2013-03-24 02:40:00,29.5,14.9,28.88,WNW,293,3.6,7.6,54,0.00,,,0.00,VWS V14.00,2013-03-24 07:40:00,
2013-03-24 02:45:00,29.5,15.7,28.88,NW,320,3.6,8.1,56,0.00,,,0.00,VWS V14.00,2013-03-24 07:45:00,
2013-03-24 02:50:00,29.3,16.4,28.88,West,268,2.2,8.1,58,0.00,,,0.00,VWS V14.00,2013-03-24 07:50:00,
2013-03-24 02:55:00,29.1,17.7,28.88,NW,307,4.0,6.3,62,0.00,,,0.00,VWS V14.00,2013-03-24 07:55:00,
2013-03-24 03:00:00,28.9,18.3,28.88,WNW,299,5.8,6.3,64,0.00,,,0.00,VWS V14.00,2013-03-24 08:00:00,
2013-03-24 03:05:00,28.8,19.5,28.88,NW,304,4.9,7.2,68,0.00,,,0.00,VWS V14.00,2013-03-24 08:05:00,
2013-03-24 03:10:00,28.6,19.7,28.88,WNW,295,3.1,7.2,69,0.00,,,0.00,VWS V14.00,2013-03-24 08:10:00,
2013-03-24 03:15:00,28.6,20.4,28.88,NW,307,4.9,5.4,71,0.00,,,0.00,VWS V14.00,2013-03-24 08:15:00,
2013-03-24 03:20:00,28.4,20.5,28.88,NW,308,2.7,5.8,72,0.00,,,0.00,VWS V14.00,2013-03-24 08:20:00,
2013-03-24 03:25:00,28.4,20.5,28.88,NW,316,4.9,7.6,72,0.00,,,0.00,VWS V14.00,2013-03-24 08:25:00,
2013-03-24 03:30:00,28.4,20.9,28.85,NW,320,4.9,7.6,73,0.00,,,0.00,VWS V14.00,2013-03-24 08:30:00,
2013-03-24 03:35:00,28.4,20.9,28.85,NW,309,3.6,4.9,73,0.00,,,0.00,VWS V14.00,2013-03-24 08:35:00,
2013-03-24 03:40:00,28.4,21.2,28.85,NW,321,2.7,5.4,74,0.00,,,0.00,VWS V14.00,2013-03-24 08:40:00,
2013-03-24 03:45:00,28.6,21.4,28.85,West,264,2.7,4.9,74,0.00,,,0.00,VWS V14.00,2013-03-24 08:45:00,
2013-03-24 03:50:00,28.6,21.4,28.85,West,281,5.8,5.8,74,0.00,,,0.00,VWS V14.00,2013-03-24 08:50:00,
2013-03-24 03:55:00,28.6,21.0,28.85,NW,306,3.6,8.1,73,0.00,,,0.00,VWS V14.00,2013-03-24 08:55:00,
2013-03-24 04:00:00,28.6,21.0,28.85,WSW,251,3.6,8.1,73,0.00,,,0.00,VWS V14.00,2013-03-24 09:00:00,
2013-03-24 04:05:00,28.6,21.0,28.85,SW,230,3.1,7.6,73,0.00,,,0.00,VWS V14.00,2013-03-24 09:05:00,
2013-03-24 04:10:00,28.6,20.7,28.85,NW,304,2.7,7.6,72,0.00,,,0.00,VWS V14.00,2013-03-24 09:10:00,
2013-03-24 04:15:00,28.6,20.4,28.82,West,267,4.0,6.3,71,0.00,,,0.00,VWS V14.00,2013-03-24 09:15:00,
2013-03-24 04:20:00,28.6,19.7,28.82,NW,304,3.1,6.3,69,0.00,,,0.00,VWS V14.00,2013-03-24 09:20:00,
2013-03-24 04:25:00,28.6,18.7,28.82,WNW,292,3.6,7.6,66,0.00,,,0.00,VWS V14.00,2013-03-24 09:25:00,
2013-03-24 04:30:00,28.6,18.7,28.82,West,280,4.0,7.6,66,0.00,,,0.00,VWS V14.00,2013-03-24 09:30:00,
2013-03-24 04:35:00,28.6,18.3,28.82,NW,305,7.6,7.6,65,0.00,,,0.00,VWS V14.00,2013-03-24 09:35:00,
2013-03-24 04:40:00,28.4,18.1,28.82,West,268,3.1,7.6,65,0.00,,,0.00,VWS V14.00,2013-03-24 09:40:00,
2013-03-24 04:45:00,28.2,16.9,28.82,West,281,6.3,8.1,62,0.00,,,0.00,VWS V14.00,2013-03-24 09:45:00,
2013-03-24 04:50:00,28.2,16.5,28.82,WNW,287,2.7,8.1,61,0.00,,,0.00,VWS V14.00,2013-03-24 09:50:00,
2013-03-24 04:55:00,28.0,16.3,28.82,West,264,3.6,6.3,61,0.00,,,0.00,VWS V14.00,2013-03-24 09:55:00,
2013-03-24 05:00:00,28.2,16.5,28.82,WSW,251,6.3,9.6,61,0.00,,,0.00,VWS V14.00,2013-03-24 10:00:00,
2013-03-24 05:05:00,27.9,16.2,28.82,NW,309,3.6,10.5,61,0.00,,,0.00,VWS V14.00,2013-03-24 10:05:00,
2013-03-24 05:10:00,27.9,16.5,28.82,West,278,5.4,10.5,62,0.00,,,0.00,VWS V14.00,2013-03-24 10:10:00,
2013-03-24 05:15:00,27.9,16.5,28.82,NW,308,8.7,8.7,62,0.00,,,0.00,VWS V14.00,2013-03-24 10:15:00,
2013-03-24 05:20:00,27.9,16.5,28.82,West,268,5.4,9.6,62,0.00,,,0.00,VWS V14.00,2013-03-24 10:20:00,
2013-03-24 05:25:00,27.7,16.4,28.82,NW,315,5.8,8.3,62,0.00,,,0.00,VWS V14.00,2013-03-24 10:25:00,
2013-03-24 05:30:00,27.7,16.4,28.82,WNW,302,5.8,8.7,62,0.00,,,0.00,VWS V14.00,2013-03-24 10:30:00,
2013-03-24 05:35:00,27.7,16.4,28.82,West,278,5.4,7.6,62,0.00,,,0.00,VWS V14.00,2013-03-24 10:35:00,
2013-03-24 05:39:00,27.7,16.4,28.82,WNW,288,8.1,8.1,62,0.00,,,0.00,VWS V14.00,2013-03-24 10:39:00,
2013-03-24 05:44:00,27.7,16.7,28.82,West,270,5.8,6.3,63,0.00,,,0.00,VWS V14.00,2013-03-24 10:44:00,
2013-03-24 05:49:00,27.7,17.1,28.82,West,272,5.4,8.3,64,0.00,,,0.00,VWS V14.00,2013-03-24 10:49:00,
2013-03-24 05:54:00,27.7,17.8,28.82,WNW,299,4.9,8.3,66,0.00,,,0.00,VWS V14.00,2013-03-24 10:54:00,
2013-03-24 05:59:00,27.5,18.0,28.82,West,281,5.4,8.3,67,0.00,,,0.00,VWS V14.00,2013-03-24 10:59:00,
2013-03-24 06:04:00,27.5,18.7,28.82,West,277,4.9,8.1,69,0.00,,,0.00,VWS V14.00,2013-03-24 11:04:00,
2013-03-24 06:09:00,27.3,18.8,28.82,WNW,285,7.6,8.1,70,0.00,,,0.00,VWS V14.00,2013-03-24 11:09:00,
2013-03-24 06:14:00,27.3,18.8,28.82,NNW,332,3.6,8.3,70,0.00,,,0.00,VWS V14.00,2013-03-24 11:14:00,
2013-03-24 06:19:00,27.3,18.8,28.82,WNW,299,4.9,8.3,70,0.00,,,0.00,VWS V14.00,2013-03-24 11:19:00,
2013-03-24 06:24:00,27.1,18.3,28.82,WNW,292,7.2,8.1,69,0.00,,,0.00,VWS V14.00,2013-03-24 11:24:00,
2013-03-24 06:29:00,27.1,18.3,28.82,WNW,285,5.8,11.0,69,0.00,,,0.00,VWS V14.00,2013-03-24 11:29:00,
2013-03-24 06:34:00,27.1,18.0,28.82,WNW,285,6.3,10.5,68,0.00,,,0.00,VWS V14.00,2013-03-24 11:34:00,
2013-03-24 06:39:00,27.0,17.8,28.82,WNW,293,3.1,10.5,68,0.00,,,0.00,VWS V14.00,2013-03-24 11:39:00,
2013-03-24 06:44:00,27.0,18.2,28.82,SW,220,5.4,7.6,69,0.00,,,0.00,VWS V14.00,2013-03-24 11:44:00,
2013-03-24 06:49:00,27.0,18.5,28.82,West,271,5.8,10.5,70,0.00,,,0.00,VWS V14.00,2013-03-24 11:49:00,
2013-03-24 06:54:00,27.0,18.8,28.82,WSW,243,4.9,7.6,71,0.00,,,0.00,VWS V14.00,2013-03-24 11:54:00,
2013-03-24 06:59:00,26.8,19.0,28.82,West,268,5.4,7.6,72,0.00,,,0.00,VWS V14.00,2013-03-24 11:59:00,
2013-03-24 07:04:00,26.8,19.0,28.82,NW,307,5.4,8.3,72,0.00,,,0.00,VWS V14.00,2013-03-24 12:04:00,
2013-03-24 07:09:00,26.6,19.1,28.82,WNW,285,5.8,8.3,73,0.00,,,0.00,VWS V14.00,2013-03-24 12:09:00,
2013-03-24 07:14:00,26.4,19.3,28.79,WNW,288,8.3,8.3,74,0.00,,,0.00,VWS V14.00,2013-03-24 12:14:00,
2013-03-24 07:19:00,26.4,19.3,28.79,WSW,251,4.9,8.7,74,0.00,,,0.00,VWS V14.00,2013-03-24 12:19:00,
2013-03-24 07:24:00,26.4,19.0,28.79,WSW,250,6.3,11.9,73,0.00,,,0.00,VWS V14.00,2013-03-24 12:24:00,
2013-03-24 07:29:00,26.4,19.0,28.82,WNW,291,2.7,11.9,73,0.00,,,0.00,VWS V14.00,2013-03-24 12:29:00,
2013-03-24 07:34:00,26.4,19.0,28.82,West,275,2.7,8.7,73,0.00,,,0.00,VWS V14.00,2013-03-24 12:34:00,
2013-03-24 07:39:00,26.6,18.8,28.82,WSW,243,7.2,8.7,72,0.00,,,0.00,VWS V14.00,2013-03-24 12:39:00,
2013-03-24 07:44:00,26.6,18.5,28.82,West,263,5.8,9.6,71,0.00,,,0.00,VWS V14.00,2013-03-24 12:44:00,
2013-03-24 07:49:00,26.6,18.5,28.82,West,271,5.4,9.6,71,0.00,,,0.00,VWS V14.00,2013-03-24 12:49:00,
2013-03-24 07:54:00,26.8,18.0,28.82,West,275,4.0,10.1,69,0.00,,,0.00,VWS V14.00,2013-03-24 12:54:00,
2013-03-24 07:59:00,26.8,17.6,28.82,NW,304,5.8,10.1,68,0.00,,,0.00,VWS V14.00,2013-03-24 12:59:00,
2013-03-24 08:04:00,27.0,17.5,28.82,WSW,252,3.1,9.6,67,0.00,,,0.00,VWS V14.00,2013-03-24 13:04:00,
2013-03-24 08:09:00,27.0,17.1,28.82,SW,221,6.3,9.6,66,0.00,,,0.00,VWS V14.00,2013-03-24 13:09:00,
2013-03-24 08:14:00,27.1,16.6,28.82,West,267,2.7,8.3,64,0.00,,,0.00,VWS V14.00,2013-03-24 13:14:00,
2013-03-24 08:19:00,27.1,16.2,28.82,West,259,5.8,8.3,63,0.00,,,0.00,VWS V14.00,2013-03-24 13:19:00,
2013-03-24 08:24:00,27.3,16.0,28.82,SW,233,4.0,8.3,62,0.00,,,0.00,VWS V14.00,2013-03-24 13:24:00,
2013-03-24 08:29:00,27.3,15.7,28.82,West,274,7.6,8.7,61,0.00,,,0.00,VWS V14.00,2013-03-24 13:29:00,
2013-03-24 08:34:00,27.3,15.7,28.82,West,264,8.1,11.4,61,0.00,,,0.00,VWS V14.00,2013-03-24 13:34:00,
2013-03-24 08:39:00,27.7,16.0,28.82,NW,315,6.3,11.4,61,0.00,,,0.00,VWS V14.00,2013-03-24 13:39:00,
2013-03-24 08:44:00,27.7,15.2,28.82,WSW,239,8.1,8.7,59,0.00,,,0.00,VWS V14.00,2013-03-24 13:44:00,
2013-03-24 08:49:00,27.3,14.5,28.82,WSW,257,8.1,10.1,58,0.00,,,0.00,VWS V14.00,2013-03-24 13:49:00,
2013-03-24 08:54:00,27.9,15.0,28.82,WSW,257,3.6,12.3,58,0.00,,,0.00,VWS V14.00,2013-03-24 13:54:00,
2013-03-24 08:59:00,27.9,14.6,28.82,WSW,257,4.9,12.3,57,0.00,,,0.00,VWS V14.00,2013-03-24 13:59:00,
2013-03-24 09:04:00,27.9,14.6,28.82,West,269,3.1,10.5,57,0.00,,,0.00,VWS V14.00,2013-03-24 14:04:00,
2013-03-24 09:09:00,28.0,14.8,28.82,WSW,245,4.0,10.5,57,0.00,,,0.00,VWS V14.00,2013-03-24 14:09:00,
2013-03-24 09:14:00,27.9,14.2,28.82,SW,232,2.7,8.7,56,0.00,,,0.00,VWS V14.00,2013-03-24 14:14:00,
2013-03-24 09:19:00,28.0,14.4,28.82,WNW,299,5.4,8.7,56,0.00,,,0.00,VWS V14.00,2013-03-24 14:19:00,
2013-03-24 09:24:00,28.0,14.4,28.82,West,271,3.1,8.3,56,0.00,,,0.00,VWS V14.00,2013-03-24 14:24:00,
2013-03-24 09:29:00,28.6,14.9,28.82,WNW,284,2.7,8.3,56,0.00,,,0.00,VWS V14.00,2013-03-24 14:29:00,
2013-03-24 09:34:00,28.2,14.1,28.82,West,272,6.3,7.6,55,0.00,,,0.00,VWS V14.00,2013-03-24 14:34:00,
2013-03-24 09:39:00,28.4,14.3,28.82,West,276,5.8,10.1,55,0.00,,,0.00,VWS V14.00,2013-03-24 14:39:00,
2013-03-24 09:44:00,28.2,14.6,28.82,West,260,8.1,8.7,56,0.00,,,0.00,VWS V14.00,2013-03-24 14:44:00,
2013-03-24 09:49:00,28.6,14.9,28.82,West,262,4.0,10.5,56,0.00,,,0.00,VWS V14.00,2013-03-24 14:49:00,
2013-03-24 09:54:00,28.4,15.1,28.82,West,272,4.0,12.3,57,0.00,,,0.00,VWS V14.00,2013-03-24 14:54:00,
2013-03-24 09:59:00,28.0,15.2,28.82,WSW,254,4.0,12.3,58,0.00,,,0.00,VWS V14.00,2013-03-24 14:59:00,
2013-03-24 10:04:00,28.4,15.9,28.82,West,259,8.1,9.6,59,0.00,,,0.00,VWS V14.00,2013-03-24 15:04:00,
2013-03-24 10:09:00,28.4,16.3,28.82,WNW,285,6.3,9.6,60,0.00,,,0.00,VWS V14.00,2013-03-24 15:09:00,
2013-03-24 10:14:00,28.2,16.5,28.82,West,272,5.8,11.0,61,0.00,,,0.00,VWS V14.00,2013-03-24 15:14:00,
2013-03-24 10:19:00,28.4,16.3,28.82,SW,221,7.6,11.0,60,0.00,,,0.00,VWS V14.00,2013-03-24 15:19:00,
2013-03-24 10:24:00,28.6,16.1,28.82,SW,220,3.1,8.3,59,0.00,,,0.00,VWS V14.00,2013-03-24 15:24:00,
2013-03-24 10:29:00,28.6,16.5,28.82,West,269,4.0,10.1,60,0.00,,,0.00,VWS V14.00,2013-03-24 15:29:00,
2013-03-24 10:34:00,28.4,16.7,28.82,WNW,285,6.3,8.7,61,0.00,,,0.00,VWS V14.00,2013-03-24 15:34:00,
2013-03-24 10:39:00,28.8,17.0,28.82,WSW,250,4.9,8.7,61,0.00,,,0.00,VWS V14.00,2013-03-24 15:39:00,
2013-03-24 10:44:00,28.9,16.4,28.82,South,172,5.4,8.1,59,0.00,,,0.00,VWS V14.00,2013-03-24 15:44:00,
2013-03-24 10:49:00,28.9,16.4,28.82,WNW,288,3.6,8.1,59,0.00,,,0.00,VWS V14.00,2013-03-24 15:49:00,
2013-03-24 10:54:00,29.3,16.8,28.82,WNW,286,6.3,8.1,59,0.00,,,0.00,VWS V14.00,2013-03-24 15:54:00,
2013-03-24 10:59:00,29.1,16.2,28.79,West,278,4.0,8.3,58,0.00,,,0.00,VWS V14.00,2013-03-24 15:59:00,
2013-03-24 11:04:00,29.1,15.8,28.79,West,270,5.8,8.1,57,0.00,,,0.00,VWS V14.00,2013-03-24 16:04:00,
2013-03-24 11:09:00,29.1,15.8,28.79,WNW,294,6.3,8.3,57,0.00,,,0.00,VWS V14.00,2013-03-24 16:09:00,
2013-03-24 11:14:00,28.8,15.1,28.79,West,279,5.8,10.5,56,0.00,,,0.00,VWS V14.00,2013-03-24 16:14:00,
2013-03-24 11:19:00,29.3,16.0,28.79,West,273,3.1,10.5,57,0.00,,,0.00,VWS V14.00,2013-03-24 16:19:00,
2013-03-24 11:24:00,29.3,15.6,28.79,WSW,246,8.1,10.5,56,0.00,,,0.00,VWS V14.00,2013-03-24 16:24:00,
2013-03-24 11:29:00,29.3,15.6,28.79,SW,217,5.4,10.5,56,0.00,,,0.00,VWS V14.00,2013-03-24 16:29:00,
2013-03-24 11:34:00,29.5,15.3,28.79,WSW,254,3.1,5.8,55,0.00,,,0.00,VWS V14.00,2013-03-24 16:34:00,
2013-03-24 11:39:00,29.5,15.3,28.79,NW,315,11.0,11.0,55,0.00,,,0.00,VWS V14.00,2013-03-24 16:39:00,
2013-03-24 11:44:00,29.8,15.7,28.79,NNW,344,10.1,10.1,55,0.00,,,0.00,VWS V14.00,2013-03-24 16:44:00,
2013-03-24 11:49:00,29.8,15.2,28.79,West,279,3.1,10.1,54,0.00,,,0.00,VWS V14.00,2013-03-24 16:49:00,
2013-03-24 11:54:00,30.2,16.0,28.79,NW,313,4.0,10.5,55,0.00,,,0.00,VWS V14.00,2013-03-24 16:54:00,
2013-03-24 11:59:00,30.7,15.6,28.79,West,270,6.3,10.5,53,0.00,,,0.00,VWS V14.00,2013-03-24 16:59:00,
2013-03-24 12:04:00,30.2,14.7,28.79,WSW,258,5.8,11.0,52,0.00,,,0.00,VWS V14.00,2013-03-24 17:04:00,
2013-03-24 12:09:00,30.6,15.0,28.79,West,271,5.4,11.0,52,0.00,,,0.00,VWS V14.00,2013-03-24 17:09:00,
2013-03-24 12:14:00,30.0,14.5,28.79,WNW,294,5.8,8.7,52,0.00,,,0.00,VWS V14.00,2013-03-24 17:14:00,
2013-03-24 12:19:00,30.4,14.0,28.79,WNW,292,4.0,8.7,50,0.00,,,0.00,VWS V14.00,2013-03-24 17:19:00,
2013-03-24 12:24:00,30.2,14.7,28.79,WSW,240,0.0,12.3,52,0.00,,,0.00,VWS V14.00,2013-03-24 17:24:00,
2013-03-24 12:29:00,30.0,14.5,28.79,West,272,3.6,13.2,52,0.00,,,0.00,VWS V14.00,2013-03-24 17:29:00,
2013-03-24 12:34:00,30.0,14.5,28.79,NW,307,8.7,10.1,52,0.00,,,0.00,VWS V14.00,2013-03-24 17:34:00,
2013-03-24 12:39:00,30.2,15.1,28.79,WNW,288,8.1,10.5,53,0.00,,,0.00,VWS V14.00,2013-03-24 17:39:00,
2013-03-24 12:44:00,29.8,14.8,28.79,SW,232,2.2,8.1,53,0.00,,,0.00,VWS V14.00,2013-03-24 17:44:00,
2013-03-24 12:49:00,30.4,14.9,28.79,WNW,287,8.1,9.6,52,0.00,,,0.00,VWS V14.00,2013-03-24 17:49:00,
2013-03-24 12:54:00,30.0,14.5,28.79,WNW,283,7.6,10.5,52,0.00,,,0.00,VWS V14.00,2013-03-24 17:54:00,
2013-03-24 12:59:00,30.2,14.7,28.79,WSW,241,5.4,11.0,52,0.00,,,0.00,VWS V14.00,2013-03-24 17:59:00,
2013-03-24 13:04:00,30.2,14.7,28.79,West,278,6.3,9.2,52,0.00,,,0.00,VWS V14.00,2013-03-24 18:04:00,
2013-03-24 13:09:00,30.4,14.9,28.79,West,276,5.8,9.2,52,0.00,,,0.00,VWS V14.00,2013-03-24 18:09:00,
2013-03-24 13:14:00,29.8,14.4,28.79,WSW,243,8.7,12.8,52,0.00,,,0.00,VWS V14.00,2013-03-24 18:14:00,
2013-03-24 13:19:00,30.4,15.3,28.79,West,264,3.6,12.8,53,0.00,,,0.00,VWS V14.00,2013-03-24 18:19:00,
2013-03-24 13:24:00,29.7,14.2,28.79,SW,225,12.8,15.4,52,0.00,,,0.00,VWS V14.00,2013-03-24 18:24:00,
2013-03-24 13:29:00,31.1,16.4,28.79,WSW,241,0.0,15.4,54,0.00,,,0.00,VWS V14.00,2013-03-24 18:29:00,
2013-03-24 13:34:00,30.4,14.9,28.79,SW,234,2.7,8.3,52,0.00,,,0.00,VWS V14.00,2013-03-24 18:34:00,
2013-03-24 13:39:00,31.1,15.5,28.79,SW,225,3.6,8.7,52,0.00,,,0.00,VWS V14.00,2013-03-24 18:39:00,
2013-03-24 13:44:00,30.2,14.7,28.76,WNW,301,3.6,11.0,52,0.00,,,0.00,VWS V14.00,2013-03-24 18:44:00,
2013-03-24 13:49:00,30.2,15.1,28.76,West,276,4.9,11.0,53,0.00,,,0.00,VWS V14.00,2013-03-24 18:49:00,
2013-03-24 13:54:00,30.9,15.8,28.76,WSW,246,0.0,10.1,53,0.00,,,0.00,VWS V14.00,2013-03-24 18:54:00,
2013-03-24 13:59:00,32.2,16.5,28.76,NW,324,0.0,10.1,52,0.00,,,0.00,VWS V14.00,2013-03-24 18:59:00,
2013-03-24 14:04:00,31.1,14.6,28.76,SSW,203,5.4,8.1,50,0.00,,,0.00,VWS V14.00,2013-03-24 19:04:00,
2013-03-24 14:09:00,30.7,15.6,28.76,West,278,4.0,8.7,53,0.00,,,0.00,VWS V14.00,2013-03-24 19:09:00,
2013-03-24 14:14:00,31.5,16.8,28.76,West,264,3.1,6.3,54,0.00,,,0.00,VWS V14.00,2013-03-24 19:14:00,
2013-03-24 14:19:00,31.1,16.0,28.76,West,276,4.0,11.0,53,0.00,,,0.00,VWS V14.00,2013-03-24 19:19:00,
2013-03-24 14:24:00,31.5,16.8,28.76,SW,236,3.6,8.1,54,0.00,,,0.00,VWS V14.00,2013-03-24 19:24:00,
2013-03-24 14:29:00,31.1,16.4,28.76,WSW,245,5.4,8.1,54,0.00,,,0.00,VWS V14.00,2013-03-24 19:29:00,
2013-03-24 14:34:00,31.5,17.6,28.76,West,261,2.2,8.3,56,0.00,,,0.00,VWS V14.00,2013-03-24 19:34:00,
2013-03-24 14:39:00,31.1,17.2,28.76,SSW,204,3.6,12.8,56,0.00,,,0.00,VWS V14.00,2013-03-24 19:39:00,
2013-03-24 14:44:00,30.9,16.7,28.76,West,262,7.6,11.9,55,0.00,,,0.00,VWS V14.00,2013-03-24 19:44:00,
2013-03-24 14:49:00,31.5,18.0,28.76,SW,230,5.8,12.3,57,0.00,,,0.00,VWS V14.00,2013-03-24 19:49:00,
2013-03-24 14:54:00,31.1,17.7,28.76,SW,218,8.1,8.7,57,0.00,,,0.00,VWS V14.00,2013-03-24 19:54:00,
2013-03-24 14:59:00,31.1,18.5,28.76,WSW,258,5.4,9.6,59,0.00,,,0.00,VWS V14.00,2013-03-24 19:59:00,
2013-03-24 15:04:00,30.6,17.1,28.76,WSW,254,3.1,12.8,57,0.00,,,0.00,VWS V14.00,2013-03-24 20:04:00,
2013-03-24 15:09:00,30.2,17.6,28.76,SW,236,6.3,12.8,59,0.00,,,0.00,VWS V14.00,2013-03-24 20:09:00,
2013-03-24 15:14:00,30.2,17.6,28.76,SSW,211,10.5,11.0,59,0.00,,,0.00,VWS V14.00,2013-03-24 20:14:00,
2013-03-24 15:19:00,30.2,17.6,28.76,WSW,254,3.1,11.0,59,0.00,,,0.00,VWS V14.00,2013-03-24 20:19:00,
2013-03-24 15:24:00,30.0,16.6,28.76,SW,229,10.1,14.1,57,0.00,,,0.00,VWS V14.00,2013-03-24 20:24:00,
2013-03-24 15:29:00,30.6,17.6,28.76,WSW,258,4.9,14.1,58,0.00,,,0.00,VWS V14.00,2013-03-24 20:29:00,
2013-03-24 15:34:00,30.6,17.6,28.76,SW,234,9.2,9.2,58,0.00,,,0.00,VWS V14.00,2013-03-24 20:34:00,
2013-03-24 15:39:00,30.9,18.3,28.76,West,269,5.4,10.1,59,0.00,,,0.00,VWS V14.00,2013-03-24 20:39:00,
2013-03-24 15:44:00,30.6,18.0,28.76,West,278,10.1,11.0,59,0.00,,,0.00,VWS V14.00,2013-03-24 20:44:00,
2013-03-24 15:49:00,30.4,19.3,28.76,WSW,240,8.1,13.2,63,0.00,,,0.00,VWS V14.00,2013-03-24 20:49:00,
2013-03-24 15:54:00,30.2,18.0,28.76,WSW,244,5.4,10.5,60,0.00,,,0.00,VWS V14.00,2013-03-24 20:54:00,
2013-03-24 15:59:00,30.7,17.7,28.76,SW,236,7.6,12.3,58,0.00,,,0.00,VWS V14.00,2013-03-24 20:59:00,
2013-03-24 16:04:00,31.1,18.1,28.76,SSW,202,4.0,10.1,58,0.00,,,0.00,VWS V14.00,2013-03-24 21:04:00,
2013-03-24 16:09:00,31.3,17.8,28.76,WNW,294,9.6,10.1,57,0.00,,,0.00,VWS V14.00,2013-03-24 21:09:00,
2013-03-24 16:14:00,31.1,17.2,28.76,SW,235,4.9,8.3,56,0.00,,,0.00,VWS V14.00,2013-03-24 21:14:00,
2013-03-24 16:19:00,31.1,17.7,28.76,WSW,246,4.0,8.3,57,0.00,,,0.00,VWS V14.00,2013-03-24 21:19:00,
2013-03-24 16:24:00,30.9,17.9,28.76,SW,216,4.0,8.7,58,0.00,,,0.00,VWS V14.00,2013-03-24 21:24:00,
2013-03-24 16:29:00,30.6,18.0,28.76,SW,231,3.1,10.5,59,0.00,,,0.00,VWS V14.00,2013-03-24 21:29:00,
2013-03-24 16:34:00,30.9,18.3,28.76,West,275,5.8,8.7,59,0.00,,,0.00,VWS V14.00,2013-03-24 21:34:00,
2013-03-24 16:39:00,30.4,17.4,28.76,WNW,283,8.3,8.7,58,0.00,,,0.00,VWS V14.00,2013-03-24 21:39:00,
2013-03-24 16:44:00,30.4,18.2,28.76,SSW,207,3.1,11.4,60,0.00,,,0.00,VWS V14.00,2013-03-24 21:44:00,
2013-03-24 16:49:00,30.7,18.5,28.76,WSW,245,3.1,11.4,60,0.00,,,0.00,VWS V14.00,2013-03-24 21:49:00,
2013-03-24 16:54:00,30.6,18.3,28.76,WSW,249,4.0,10.1,60,0.00,,,0.00,VWS V14.00,2013-03-24 21:54:00,
2013-03-24 16:59:00,30.6,18.0,28.76,SW,218,4.9,10.1,59,0.00,,,0.00,VWS V14.00,2013-03-24 21:59:00,
2013-03-24 17:04:00,30.6,18.0,28.76,WSW,256,6.3,8.3,59,0.00,,,0.00,VWS V14.00,2013-03-24 22:04:00,
2013-03-24 17:09:00,30.7,17.3,28.76,WSW,239,3.1,8.3,57,0.00,,,0.00,VWS V14.00,2013-03-24 22:09:00,
2013-03-24 17:14:00,30.7,17.3,28.79,WSW,255,8.1,8.7,57,0.00,,,0.00,VWS V14.00,2013-03-24 22:14:00,
2013-03-24 17:19:00,30.4,17.4,28.79,West,268,7.2,9.6,58,0.00,,,0.00,VWS V14.00,2013-03-24 22:19:00,
2013-03-24 17:24:00,30.6,17.6,28.79,WSW,242,2.7,11.0,58,0.00,,,0.00,VWS V14.00,2013-03-24 22:24:00,
2013-03-24 17:29:00,30.4,18.2,28.79,West,262,5.4,11.0,60,0.00,,,0.00,VWS V14.00,2013-03-24 22:29:00,
2013-03-24 17:34:00,30.2,18.8,28.79,SSW,208,6.3,11.0,62,0.00,,,0.00,VWS V14.00,2013-03-24 22:34:00,
2013-03-24 17:39:00,30.4,19.7,28.79,WSW,251,4.0,11.0,64,0.00,,,0.00,VWS V14.00,2013-03-24 22:39:00,
2013-03-24 17:44:00,30.4,20.0,28.79,West,261,5.4,8.1,65,0.00,,,0.00,VWS V14.00,2013-03-24 22:44:00,
2013-03-24 17:49:00,30.2,20.6,28.79,SW,224,7.6,8.7,67,0.00,,,0.00,VWS V14.00,2013-03-24 22:49:00,
2013-03-24 17:54:00,30.2,21.3,28.79,SW,235,4.9,8.7,69,0.00,,,0.00,VWS V14.00,2013-03-24 22:54:00,
2013-03-24 17:59:00,30.2,21.6,28.79,West,270,5.4,12.8,70,0.00,,,0.00,VWS V14.00,2013-03-24 22:59:00,
2013-03-24 18:04:00,30.2,21.3,28.79,WNW,295,4.0,14.5,69,0.00,,,0.00,VWS V14.00,2013-03-24 23:04:00,
2013-03-24 18:09:00,30.2,21.9,28.79,SW,230,2.7,14.5,71,0.00,,,0.00,VWS V14.00,2013-03-24 23:09:00,
2013-03-24 18:14:00,30.2,21.9,28.79,West,265,8.7,8.7,71,0.00,,,0.00,VWS V14.00,2013-03-24 23:14:00,
2013-03-24 18:19:00,30.0,22.1,28.79,WNW,286,7.6,10.1,72,0.00,,,0.00,VWS V14.00,2013-03-24 23:19:00,
2013-03-24 18:24:00,30.0,22.1,28.79,SW,235,3.6,10.1,72,0.00,,,0.00,VWS V14.00,2013-03-24 23:24:00,
2013-03-24 18:29:00,30.0,22.1,28.79,SSW,211,3.1,10.1,72,0.00,,,0.00,VWS V14.00,2013-03-24 23:29:00,
2013-03-24 18:34:00,30.0,22.1,28.79,West,280,3.1,7.6,72,0.00,,,0.00,VWS V14.00,2013-03-24 23:34:00,
2013-03-24 18:39:00,29.8,21.9,28.79,WNW,288,4.0,7.6,72,0.00,,,0.00,VWS V14.00,2013-03-24 23:39:00,
2013-03-24 18:44:00,30.0,22.1,28.79,South,183,8.3,8.7,72,0.00,,,0.00,VWS V14.00,2013-03-24 23:44:00,
2013-03-24 18:49:00,29.8,22.2,28.79,SSW,211,5.4,10.1,73,0.00,,,0.00,VWS V14.00,2013-03-24 23:49:00,
2013-03-24 18:54:00,29.8,22.2,28.79,SW,224,4.9,8.1,73,0.00,,,0.00,VWS V14.00,2013-03-24 23:54:00,
2013-03-24 18:59:00,29.8,21.9,28.79,SW,218,5.8,9.6,72,0.00,,,0.00,VWS V14.00,2013-03-24 23:59:00,
2013-03-24 19:04:00,29.8,22.2,28.79,WNW,286,6.3,8.1,73,0.00,,,0.00,VWS V14.00,2013-03-25 00:04:00,
2013-03-24 19:09:00,29.7,22.4,28.79,WNW,283,3.6,8.1,74,0.00,,,0.00,VWS V14.00,2013-03-25 00:09:00,
2013-03-24 19:14:00,29.5,22.2,28.82,West,259,3.1,7.6,74,0.00,,,0.00,VWS V14.00,2013-03-25 00:14:00,
2013-03-24 19:19:00,29.5,22.2,28.82,WSW,240,2.7,10.5,74,0.00,,,0.00,VWS V14.00,2013-03-25 00:19:00,
2013-03-24 19:24:00,29.3,22.4,28.82,WNW,294,10.5,10.5,75,0.00,,,0.00,VWS V14.00,2013-03-25 00:24:00,
2013-03-24 19:29:00,29.1,21.2,28.82,SW,232,7.6,10.5,72,0.00,,,0.00,VWS V14.00,2013-03-25 00:29:00,
2013-03-24 19:34:00,29.1,20.2,28.82,SSW,197,2.7,8.7,69,0.00,,,0.00,VWS V14.00,2013-03-25 00:34:00,
2013-03-24 19:39:00,29.3,20.4,28.82,West,272,5.4,8.7,69,0.00,,,0.00,VWS V14.00,2013-03-25 00:39:00,
2013-03-24 19:44:00,29.3,20.4,28.82,SW,232,3.6,8.7,69,0.00,,,0.00,VWS V14.00,2013-03-25 00:44:00,
2013-03-24 19:49:00,29.3,20.7,28.82,SW,219,2.7,8.7,70,0.00,,,0.00,VWS V14.00,2013-03-25 00:49:00,
2013-03-24 19:54:00,29.3,21.1,28.82,West,266,5.4,10.1,71,0.00,,,0.00,VWS V14.00,2013-03-25 00:54:00,
2013-03-24 19:59:00,29.3,21.1,28.82,West,270,2.7,10.1,71,0.00,,,0.00,VWS V14.00,2013-03-25 00:59:00,
2013-03-24 20:04:00,29.1,21.2,28.82,West,272,6.3,11.0,72,0.00,,,0.00,VWS V14.00,2013-03-25 01:04:00,
2013-03-24 20:09:00,29.1,21.6,28.82,West,280,4.0,11.0,73,0.00,,,0.00,VWS V14.00,2013-03-25 01:09:00,
2013-03-24 20:14:00,29.1,21.6,28.82,WSW,251,5.4,6.7,73,0.00,,,0.00,VWS V14.00,2013-03-25 01:14:00,
2013-03-24 20:19:00,29.1,21.6,28.82,West,265,8.1,11.4,73,0.00,,,0.00,VWS V14.00,2013-03-25 01:19:00,
2013-03-24 20:24:00,29.1,21.9,28.82,WSW,243,4.0,6.3,74,0.00,,,0.00,VWS V14.00,2013-03-25 01:24:00,
2013-03-24 20:29:00,29.3,22.4,28.82,SSW,208,4.0,11.0,75,0.00,,,0.00,VWS V14.00,2013-03-25 01:29:00,
2013-03-24 20:34:00,29.3,22.4,28.82,WNW,285,2.2,6.3,75,0.00,,,0.00,VWS V14.00,2013-03-25 01:34:00,
2013-03-24 20:39:00,29.1,22.5,28.82,NW,316,4.0,6.3,76,0.00,,,0.00,VWS V14.00,2013-03-25 01:39:00,
2013-03-24 20:44:00,28.8,22.2,28.82,SSE,166,4.5,8.3,76,0.00,,,0.00,VWS V14.00,2013-03-25 01:44:00,
2013-03-24 20:49:00,28.8,22.2,28.82,SW,215,5.8,8.3,76,0.00,,,0.00,VWS V14.00,2013-03-25 01:49:00,
2013-03-24 20:54:00,28.8,22.2,28.82,SW,223,3.6,9.2,76,0.00,,,0.00,VWS V14.00,2013-03-25 01:54:00,
2013-03-24 20:59:00,28.8,22.2,28.82,WSW,239,5.4,10.1,76,0.00,,,0.00,VWS V14.00,2013-03-25 01:59:00,
2013-03-24 21:04:00,28.8,22.2,28.82,WSW,248,7.6,10.1,76,0.00,,,0.00,VWS V14.00,2013-03-25 02:04:00,
2013-03-24 21:09:00,28.8,22.2,28.82,SW,219,3.6,10.1,76,0.00,,,0.00,VWS V14.00,2013-03-25 02:09:00,
2013-03-24 21:14:00,28.8,22.5,28.82,SSW,196,2.7,10.1,77,0.00,,,0.00,VWS V14.00,2013-03-25 02:14:00,
2013-03-24 21:19:00,28.9,22.6,28.82,SW,227,8.1,10.1,77,0.00,,,0.00,VWS V14.00,2013-03-25 02:19:00,
2013-03-24 21:24:00,28.9,23.0,28.82,WSW,255,3.6,8.3,78,0.00,,,0.00,VWS V14.00,2013-03-25 02:24:00,
2013-03-24 21:29:00,28.9,23.0,28.82,WSW,246,7.6,10.1,78,0.00,,,0.00,VWS V14.00,2013-03-25 02:29:00,
2013-03-24 21:34:00,28.9,23.0,28.82,SW,227,6.3,8.3,78,0.00,,,0.00,VWS V14.00,2013-03-25 02:34:00,
2013-03-24 21:39:00,28.9,23.0,28.82,SW,229,10.1,10.1,78,0.00,,,0.00,VWS V14.00,2013-03-25 02:39:00,
2013-03-24 21:44:00,28.8,22.8,28.82,WSW,253,2.2,8.3,78,0.00,,,0.00,VWS V14.00,2013-03-25 02:44:00,
2013-03-24 21:49:00,28.8,22.8,28.82,SW,227,4.0,10.5,78,0.00,,,0.00,VWS V14.00,2013-03-25 02:49:00,
2013-03-24 21:54:00,28.8,22.8,28.82,WSW,242,3.1,10.1,78,0.00,,,0.00,VWS V14.00,2013-03-25 02:54:00,
2013-03-24 21:59:00,28.9,23.3,28.82,WSW,238,8.1,10.1,79,0.00,,,0.00,VWS V14.00,2013-03-25 02:59:00,
2013-03-24 22:04:00,28.9,23.3,28.82,West,278,3.1,7.6,79,0.00,,,0.00,VWS V14.00,2013-03-25 03:04:00,
2013-03-24 22:09:00,28.8,23.1,28.82,SW,217,3.1,7.6,79,0.00,,,0.00,VWS V14.00,2013-03-25 03:09:00,
2013-03-24 22:14:00,28.9,23.3,28.82,West,269,5.4,8.1,79,0.00,,,0.00,VWS V14.00,2013-03-25 03:14:00,
2013-03-24 22:19:00,28.8,23.1,28.82,WNW,288,7.6,8.7,79,0.00,,,0.00,VWS V14.00,2013-03-25 03:19:00,
2013-03-24 22:24:00,28.8,22.8,28.82,WNW,284,5.4,7.6,78,0.00,,,0.00,VWS V14.00,2013-03-25 03:24:00,
2013-03-24 22:29:00,28.6,22.6,28.82,SW,217,5.8,8.3,78,0.00,,,0.00,VWS V14.00,2013-03-25 03:29:00,
2013-03-24 22:34:00,28.6,22.3,28.82,WSW,239,2.7,8.7,77,0.00,,,0.00,VWS V14.00,2013-03-25 03:34:00,
2013-03-24 22:39:00,28.6,22.3,28.82,West,266,4.9,8.7,77,0.00,,,0.00,VWS V14.00,2013-03-25 03:39:00,
2013-03-24 22:44:00,28.4,22.1,28.82,West,260,3.1,7.6,77,0.00,,,0.00,VWS V14.00,2013-03-25 03:44:00,
2013-03-24 22:49:00,28.2,22.0,28.82,WNW,302,4.0,8.1,77,0.00,,,0.00,VWS V14.00,2013-03-25 03:49:00,
2013-03-24 22:54:00,28.2,22.0,28.82,WNW,293,7.6,7.6,77,0.00,,,0.00,VWS V14.00,2013-03-25 03:54:00,
2013-03-24 22:59:00,28.2,22.0,28.82,SW,229,3.1,7.6,77,0.00,,,0.00,VWS V14.00,2013-03-25 03:59:00,
2013-03-24 23:00:00,28.2,22.0,28.82,SW,225,0.0,7.6,77,0.00,,,0.00,VWS V14.00,2013-03-25 04:00:00,
2013-03-24 23:05:00,28.2,22.2,28.82,South,187,6.3,8.3,78,0.00,,,0.00,VWS V14.00,2013-03-25 04:05:00,
2013-03-24 23:10:00,28.2,22.2,28.82,West,275,3.1,6.3,78,0.00,,,0.00,VWS V14.00,2013-03-25 04:10:00,
2013-03-24 23:15:00,28.2,22.2,28.82,WSW,245,4.0,7.2,78,0.00,,,0.00,VWS V14.00,2013-03-25 04:15:00,
2013-03-24 23:20:00,28.2,22.2,28.82,SW,228,3.6,4.0,78,0.00,,,0.00,VWS V14.00,2013-03-25 04:20:00,
2013-03-24 23:25:00,28.2,22.6,28.82,WNW,298,5.4,7.6,79,0.00,,,0.00,VWS V14.00,2013-03-25 04:25:00,
2013-03-24 23:30:00,28.2,22.6,28.82,West,275,0.0,0.0,79,0.00,,,0.00,VWS V14.00,2013-03-25 04:30:00,
2013-03-24 23:35:00,28.2,22.6,28.82,WSW,255,7.2,7.2,79,0.00,,,0.00,VWS V14.00,2013-03-25 04:35:00,
2013-03-24 23:40:00,28.2,22.6,28.82,WNW,289,3.1,5.8,79,0.00,,,0.00,VWS V14.00,2013-03-25 04:40:00,
2013-03-24 23:45:00,28.2,22.6,28.82,WNW,286,3.6,6.3,79,0.00,,,0.00,VWS V14.00,2013-03-25 04:45:00,
2013-03-24 23:50:00,28.2,22.6,28.82,West,267,4.9,4.9,79,0.00,,,0.00,VWS V14.00,2013-03-25 04:50:00,
2013-03-24 23:55:00,28.2,22.6,28.82,SSW,213,4.0,8.1,79,0.00,,,0.00,VWS V14.00,2013-03-25 04:55:00,